LOU weather

Bowman Field
Louisville, Kentucky, United States

Public forecast

Using degrees Fahrenheit for public forecast. Weather courtesy of forecast.io.

Current aviation weather report (METAR) for Bowman Field

Retrieved 2019/10/15 08:53 UTC (58 minutes ago):

KLOU 150853Z AUTO 00000KT 10SM CLR 07/04 A3008 RMK AO2 SLP185 T00670039 56003

Closest aviation forecast (TAF) to Bowman Field

Closest forecast is Louisville International Standiford Field, 4.7 nm (8.7 km) SW. Retrieved 2019/10/15 06:39 UTC (3 hours ago):

TAF KSDF 150536Z 1506/1612 00000KT P6SM FEW250 FM151500 16008KT P6SM SCT250 FM151800 20011KT P6SM SCT050 BKN250 FM160000 20008KT P6SM BKN040 FM160400 27012G18KT 5SM -SHRA VCTS BKN015CB